»·PEaware :: UAL1613 KDEN-KLAX

UAL1613 :: KDEN-KLAX

FLIGHT INFORMATION

Flight Status: Arrived
Operator:
United Airlines
More flights by this operator :: More flights under this callsign
Pilot: Alex S. (7186)
Aircraft: BOEING 777-200
(B772)
More flights by this aircraft type
Origin: KDEN Denver Intl
United States
Destination: KLAX Los Angeles Intl
United States
More flights between these airports :: More routes between these airports
Route: CONNR4 DBL CHESZ Q88 HAKMN ANJLL2
File this flight plan on PilotEdge
Remarks: PBN / A1B1C1D1L1O1S2 DOF / 180429 EET / KZLC0038 KZLA0053 OPR / UAL PER / D RMK / TCAS SIMBRIEF
Altitude:
(Current/Filed)
36,000ft
Speed:
(Current/Filed)
478kts
Departed: 28-Apr-18 05:18 PM
Arrived: 28-Apr-18 07:09 PM
Distance/Time
Traveled:
747nm/1:51
Distance/Time
To Go:
Arrived

Flight Plot

Page will automatically refresh every two minutes.

Flight plan parsing failed; only flown route is shown


Map Options




Map Legend


Flown Route
Filed Route
Departure Airport
Arrival Airport
Navaid (VOR, NDB)
Fix

Horizontal Profiles

Position Reports

Time Latitude Longitude Heading Altitude Ground
Speed
28-Apr-18 16:41 39.858144 -104.675481 0 5444ft 0kts
28-Apr-18 16:42 39.858144 -104.675481 0 5444ft 0kts
28-Apr-18 16:43 39.858144 -104.675481 0 5444ft 0kts
28-Apr-18 16:44 39.858144 -104.675481 0 5444ft 0kts
28-Apr-18 16:45 39.858144 -104.675481 0 5444ft 0kts
28-Apr-18 16:46 39.858144 -104.675481 0 5444ft 0kts
28-Apr-18 16:47 39.858144 -104.675481 0 5444ft 0kts
28-Apr-18 16:48 39.858144 -104.675481 0 5444ft 0kts
28-Apr-18 16:49 39.858144 -104.675481 0 5444ft 0kts
28-Apr-18 16:50 39.858144 -104.675481 0 5444ft 0kts
28-Apr-18 16:51 39.858144 -104.675481 0 5444ft 0kts
28-Apr-18 16:52 39.858144 -104.675481 0 5444ft 0kts
28-Apr-18 16:53 39.858144 -104.675481 0 5444ft 0kts
28-Apr-18 16:54 39.858144 -104.675481 0 5444ft 0kts
28-Apr-18 16:55 39.858144 -104.675481 0 5444ft 0kts
28-Apr-18 16:56 39.858144 -104.675481 0 5444ft 0kts
28-Apr-18 16:57 39.858144 -104.675481 0 5444ft 0kts
28-Apr-18 16:58 39.858144 -104.675481 0 5444ft 0kts
28-Apr-18 16:59 39.858144 -104.675481 0 5444ft 0kts
28-Apr-18 17:00 39.858144 -104.675481 0 5444ft 0kts
28-Apr-18 17:01 39.858144 -104.675481 0 5444ft 0kts
28-Apr-18 17:02 39.857999 -104.675481 0 5444ft 2kts
28-Apr-18 17:03 39.857196 -104.675481 359 5444ft 2kts
28-Apr-18 17:04 39.856582 -104.675480 359 5444ft 0kts
28-Apr-18 17:05 39.856582 -104.675480 359 5444ft 0kts
28-Apr-18 17:06 39.856582 -104.675480 359 5444ft 0kts
28-Apr-18 17:07 39.856674 -104.672087 91 5444ft 19kts
28-Apr-18 17:08 39.856633 -104.665841 80 5444ft 15kts
28-Apr-18 17:09 39.856989 -104.662356 30 5444ft 9kts
28-Apr-18 17:10 39.860568 -104.662296 2 5444ft 10kts
28-Apr-18 17:11 39.861191 -104.661751 90 5444ft 0kts
28-Apr-18 17:12 39.861191 -104.661751 90 5444ft 0kts
28-Apr-18 17:13 39.861191 -104.661751 90 5444ft 0kts
28-Apr-18 17:14 39.861191 -104.661751 90 5444ft 0kts
28-Apr-18 17:15 39.861191 -104.661751 90 5444ft 0kts
28-Apr-18 17:16 39.861178 -104.660773 91 5444ft 14kts
28-Apr-18 17:17 39.853162 -104.660247 180 5445ft 119kts
28-Apr-18 17:18 39.803246 -104.662676 193 8153ft 217kts
28-Apr-18 17:19 39.756457 -104.731370 249 10025ft 302kts
28-Apr-18 17:20 39.757891 -104.860928 268 10983ft 388kts
28-Apr-18 17:21 39.773940 -105.023691 280 16479ft 400kts
28-Apr-18 17:22 39.790202 -105.167952 271 20589ft 410kts
28-Apr-18 17:23 39.781531 -105.294169 250 22885ft 429kts
28-Apr-18 17:24 39.745852 -105.441621 254 23152ft 428kts
28-Apr-18 17:25 39.713933 -105.590635 253 24639ft 433kts
28-Apr-18 17:26 39.688510 -105.747392 259 27986ft 453kts
28-Apr-18 17:27 39.671516 -105.912751 260 30982ft 471kts
28-Apr-18 17:28 39.653329 -106.079481 259 34192ft 462kts
28-Apr-18 17:29 39.634296 -106.244519 260 35653ft 460kts
28-Apr-18 17:30 39.598865 -106.402381 246 36243ft 456kts
28-Apr-18 17:31 39.549546 -106.553779 247 36123ft 455kts
28-Apr-18 17:32 39.500779 -106.705296 246 36053ft 456kts
28-Apr-18 17:33 39.451548 -106.856455 246 36056ft 456kts
28-Apr-18 17:34 39.400054 -107.006741 244 36071ft 456kts
28-Apr-18 17:35 39.347160 -107.155596 244 36126ft 456kts
28-Apr-18 17:36 39.294246 -107.304354 244 36187ft 456kts
28-Apr-18 17:37 39.241944 -107.453818 243 36161ft 456kts
28-Apr-18 17:38 39.189057 -107.602527 243 36107ft 457kts
28-Apr-18 17:39 39.135738 -107.751402 243 36054ft 457kts
28-Apr-18 17:40 39.082298 -107.899817 243 35939ft 457kts
28-Apr-18 17:41 39.028643 -108.048091 243 35934ft 457kts
28-Apr-18 17:42 38.974700 -108.196383 243 35927ft 457kts
28-Apr-18 17:43 38.920756 -108.343946 242 35913ft 457kts
28-Apr-18 17:44 38.866644 -108.491252 242 35902ft 456kts
28-Apr-18 17:45 38.812250 -108.638589 242 35883ft 456kts
28-Apr-18 17:46 38.757865 -108.785183 242 35878ft 456kts
28-Apr-18 17:47 38.703370 -108.931356 242 35880ft 455kts
28-Apr-18 17:48 38.648572 -109.077636 242 35871ft 454kts
28-Apr-18 17:49 38.593807 -109.223120 242 35854ft 454kts
28-Apr-18 17:50 38.538750 -109.368686 242 35834ft 454kts
28-Apr-18 17:51 38.483738 -109.513439 242 35806ft 453kts
28-Apr-18 17:52 38.428642 -109.657732 241 35795ft 453kts
28-Apr-18 17:53 38.373462 -109.802474 241 35798ft 453kts
28-Apr-18 17:54 38.317880 -109.946025 241 35803ft 452kts
28-Apr-18 17:55 38.261616 -110.088727 240 35805ft 450kts
28-Apr-18 17:56 38.202348 -110.229643 239 35801ft 451kts
28-Apr-18 17:57 38.143371 -110.370008 239 35794ft 451kts
28-Apr-18 17:58 38.084678 -110.510995 240 35788ft 450kts
28-Apr-18 17:59 38.025980 -110.651000 239 35788ft 450kts
28-Apr-18 18:00 37.966998 -110.790603 240 35796ft 450kts
28-Apr-18 18:01 37.907717 -110.930262 239 35802ft 449kts
28-Apr-18 18:02 37.848486 -111.069173 239 35807ft 448kts
28-Apr-18 18:03 37.789229 -111.207555 239 35811ft 447kts
28-Apr-18 18:04 37.729778 -111.345758 239 35837ft 446kts
28-Apr-18 18:05 37.670469 -111.483061 239 35909ft 445kts
28-Apr-18 18:06 37.611228 -111.620478 239 35928ft 445kts
28-Apr-18 18:07 37.551551 -111.756931 239 35948ft 445kts
28-Apr-18 18:08 37.490277 -111.892034 233 35963ft 444kts
28-Apr-18 18:09 37.416192 -112.016501 232 35964ft 443kts
28-Apr-18 18:10 37.343264 -112.140813 232 35955ft 442kts
28-Apr-18 18:11 37.270032 -112.265440 232 35940ft 443kts
28-Apr-18 18:12 37.197549 -112.389719 232 35927ft 443kts
28-Apr-18 18:13 37.124001 -112.514031 232 35919ft 443kts
28-Apr-18 18:14 37.050206 -112.638353 232 35915ft 446kts
28-Apr-18 18:15 36.974697 -112.764837 232 35925ft 456kts
28-Apr-18 18:16 36.898869 -112.891363 232 35922ft 455kts
28-Apr-18 18:17 36.822927 -113.018299 233 35922ft 455kts
28-Apr-18 18:18 36.747365 -113.144778 233 35898ft 455kts
28-Apr-18 18:19 36.671133 -113.270593 233 35878ft 454kts
28-Apr-18 18:20 36.595644 -113.397232 234 35864ft 454kts
28-Apr-18 18:21 36.522892 -113.525602 234 35858ft 454kts
28-Apr-18 18:22 36.449515 -113.653723 234 35821ft 454kts
28-Apr-18 18:23 36.376643 -113.781585 235 35824ft 454kts
28-Apr-18 18:24 36.303417 -113.909066 235 35797ft 454kts
28-Apr-18 18:25 36.230100 -114.036647 235 35788ft 453kts
28-Apr-18 18:26 36.156501 -114.163306 235 35765ft 453kts
28-Apr-18 18:27 36.082673 -114.289566 233 35761ft 454kts
28-Apr-18 18:28 35.998593 -114.406758 228 35759ft 455kts
28-Apr-18 18:29 35.913702 -114.522777 229 35766ft 456kts
28-Apr-18 18:30 35.829139 -114.640220 230 35756ft 458kts
28-Apr-18 18:31 35.744079 -114.756882 230 35756ft 459kts
28-Apr-18 18:32 35.658688 -114.873657 231 35753ft 460kts
28-Apr-18 18:33 35.573181 -114.990999 231 35766ft 461kts
28-Apr-18 18:34 35.488572 -115.105885 230 35765ft 450kts
28-Apr-18 18:35 35.402510 -115.217460 230 35761ft 451kts
28-Apr-18 18:36 35.316485 -115.329758 230 35768ft 451kts
28-Apr-18 18:37 35.230373 -115.441514 230 35788ft 452kts
28-Apr-18 18:38 35.143934 -115.553000 230 35802ft 452kts
28-Apr-18 18:39 35.056850 -115.664809 230 35822ft 453kts
28-Apr-18 18:40 34.969727 -115.776151 230 35829ft 455kts
28-Apr-18 18:41 34.882181 -115.887739 231 35842ft 454kts
28-Apr-18 18:42 34.795096 -115.999324 231 35852ft 455kts
28-Apr-18 18:43 34.707157 -116.111014 232 35854ft 457kts
28-Apr-18 18:44 34.619434 -116.222300 232 35898ft 456kts
28-Apr-18 18:45 34.531416 -116.333327 232 35891ft 453kts
28-Apr-18 18:46 34.442637 -116.446220 234 30670ft 483kts
28-Apr-18 18:47 34.374890 -116.576216 248 28445ft 426kts
28-Apr-18 18:48 34.325858 -116.698178 247 27539ft 386kts
28-Apr-18 18:49 34.279156 -116.814960 247 25126ft 391kts
28-Apr-18 18:50 34.230883 -116.934174 247 23969ft 383kts
28-Apr-18 18:51 34.193393 -117.047499 255 21027ft 346kts
28-Apr-18 18:52 34.163611 -117.158654 254 18860ft 341kts
28-Apr-18 18:53 34.134233 -117.265666 254 16540ft 333kts
28-Apr-18 18:54 34.105089 -117.371057 253 14197ft 328kts
28-Apr-18 18:55 34.079011 -117.475262 254 12521ft 318kts
28-Apr-18 18:56 34.047124 -117.572660 246 11107ft 309kts
28-Apr-18 18:57 34.013586 -117.664158 248 10256ft 282kts
28-Apr-18 18:58 33.999285 -117.753916 267 9313ft 273kts
28-Apr-18 18:59 33.991135 -117.844531 264 8084ft 270kts
28-Apr-18 19:00 33.982442 -117.934034 265 6867ft 268kts
28-Apr-18 19:01 33.973851 -118.022656 265 5678ft 266kts
28-Apr-18 19:02 33.965226 -118.110325 263 4492ft 254kts
28-Apr-18 19:03 33.957324 -118.187693 262 3271ft 213kts
28-Apr-18 19:04 33.950730 -118.252135 262 2258ft 176kts
28-Apr-18 19:05 33.945184 -118.306365 261 1378ft 146kts
28-Apr-18 19:06 33.940448 -118.352662 261 636ft 137kts
28-Apr-18 19:07 33.936047 -118.396170 259 140ft 96kts
28-Apr-18 19:08 33.935946 -118.407009 267 140ft 10kts
28-Apr-18 19:09 33.937261 -118.409129 349 140ft 8kts
28-Apr-18 19:10 33.938036 -118.407429 81 140ft 18kts
28-Apr-18 19:11 33.938695 -118.400915 82 140ft 17kts
28-Apr-18 19:12 33.939537 -118.398206 343 140ft 8kts
28-Apr-18 19:13 33.940917 -118.398909 306 140ft 6kts
28-Apr-18 19:14 33.940984 -118.399017 306 140ft 0kts
28-Apr-18 19:15 33.940984 -118.399017 306 140ft 0kts
28-Apr-18 19:16 33.940984 -118.399017 306 140ft 0kts
28-Apr-18 19:17 33.940984 -118.399017 306 140ft 0kts
28-Apr-18 19:18 33.940984 -118.399017 306 140ft 0kts
28-Apr-18 19:19 33.940984 -118.399017 306 140ft 0kts
28-Apr-18 19:20 33.940984 -118.399017 306 140ft 0kts

Navigation Log

Ident Type
Flight plan parsing failed, navigation log unavailable